sensor_id;sensor_type;location;lat;lon;timestamp;temperature;humidity
45643;DHT22;31358;46.008;11.144;2022-10-16T00:00:42;16.00;99.90
45643;DHT22;31358;46.008;11.144;2022-10-16T00:03:08;16.10;99.90
45643;DHT22;31358;46.008;11.144;2022-10-16T00:05:41;16.10;99.90
45643;DHT22;31358;46.008;11.144;2022-10-16T00:08:08;16.10;99.90
45643;DHT22;31358;46.008;11.144;2022-10-16T00:10:34;16.00;99.90
45643;DHT22;31358;46.008;11.144;2022-10-16T00:13:00;15.90;99.90
45643;DHT22;31358;46.008;11.144;2022-10-16T00:15:26;15.90;99.90
45643;DHT22;31358;46.008;11.144;2022-10-16T00:17:51;15.80;99.90
45643;DHT22;31358;46.008;11.144;2022-10-16T00:20:17;15.70;99.90
45643;DHT22;31358;46.008;11.144;2022-10-16T00:22:43;15.70;99.90
45643;DHT22;31358;46.008;11.144;2022-10-16T00:25:08;15.70;99.90
45643;DHT22;31358;46.008;11.144;2022-10-16T00:27:34;15.60;99.90
45643;DHT22;31358;46.008;11.144;2022-10-16T00:30:00;15.60;99.90
45643;DHT22;31358;46.008;11.144;2022-10-16T00:32:26;15.70;99.90
45643;DHT22;31358;46.008;11.144;2022-10-16T00:34:51;15.70;99.90
45643;DHT22;31358;46.008;11.144;2022-10-16T00:37:20;15.70;99.90
45643;DHT22;31358;46.008;11.144;2022-10-16T00:39:45;15.70;99.90
45643;DHT22;31358;46.008;11.144;2022-10-16T00:42:18;15.70;99.90
45643;DHT22;31358;46.008;11.144;2022-10-16T00:44:52;15.80;99.90
45643;DHT22;31358;46.008;11.144;2022-10-16T00:47:31;15.90;99.90
45643;DHT22;31358;46.008;11.144;2022-10-16T00:50:18;15.80;99.90
45643;DHT22;31358;46.008;11.144;2022-10-16T00:52:48;15.70;99.90
45643;DHT22;31358;46.008;11.144;2022-10-16T00:55:15;15.70;99.90
45643;DHT22;31358;46.008;11.144;2022-10-16T00:57:42;15.70;99.90
45643;DHT22;31358;46.008;11.144;2022-10-16T01:00:11;15.80;99.90
45643;DHT22;31358;46.008;11.144;2022-10-16T01:02:37;15.80;99.90
45643;DHT22;31358;46.008;11.144;2022-10-16T01:05:04;15.80;99.90
45643;DHT22;31358;46.008;11.144;2022-10-16T01:13:07;15.80;99.90
45643;DHT22;31358;46.008;11.144;2022-10-16T01:18:36;15.80;99.90
45643;DHT22;31358;46.008;11.144;2022-10-16T01:21:07;15.80;99.90
45643;DHT22;31358;46.008;11.144;2022-10-16T01:26:58;15.80;99.90
45643;DHT22;31358;46.008;11.144;2022-10-16T01:35:05;15.90;99.90
45643;DHT22;31358;46.008;11.144;2022-10-16T01:40:17;15.80;99.90
45643;DHT22;31358;46.008;11.144;2022-10-16T01:42:52;15.90;99.90
45643;DHT22;31358;46.008;11.144;2022-10-16T01:45:19;15.90;99.90
45643;DHT22;31358;46.008;11.144;2022-10-16T01:47:47;15.80;99.90
45643;DHT22;31358;46.008;11.144;2022-10-16T01:50:14;15.80;99.90
45643;DHT22;31358;46.008;11.144;2022-10-16T01:52:44;15.90;99.90
45643;DHT22;31358;46.008;11.144;2022-10-16T01:55:13;15.90;99.90
45643;DHT22;31358;46.008;11.144;2022-10-16T01:57:45;15.90;99.90
45643;DHT22;31358;46.008;11.144;2022-10-16T02:00:13;15.80;99.90
45643;DHT22;31358;46.008;11.144;2022-10-16T02:02:41;15.80;99.90
45643;DHT22;31358;46.008;11.144;2022-10-16T02:07:44;15.80;99.90
45643;DHT22;31358;46.008;11.144;2022-10-16T02:10:10;15.80;99.90
45643;DHT22;31358;46.008;11.144;2022-10-16T02:12:38;15.80;99.90
45643;DHT22;31358;46.008;11.144;2022-10-16T02:15:06;15.90;99.90
45643;DHT22;31358;46.008;11.144;2022-10-16T02:17:32;16.00;99.90
45643;DHT22;31358;46.008;11.144;2022-10-16T02:19:58;16.10;99.90
45643;DHT22;31358;46.008;11.144;2022-10-16T02:22:32;16.10;99.90
45643;DHT22;31358;46.008;11.144;2022-10-16T02:25:05;16.00;99.90
45643;DHT22;31358;46.008;11.144;2022-10-16T02:27:49;16.10;99.90
45643;DHT22;31358;46.008;11.144;2022-10-16T02:32:49;16.00;99.90
45643;DHT22;31358;46.008;11.144;2022-10-16T02:35:18;15.90;99.90
45643;DHT22;31358;46.008;11.144;2022-10-16T02:37:45;15.90;99.90
45643;DHT22;31358;46.008;11.144;2022-10-16T02:40:12;15.80;99.90
45643;DHT22;31358;46.008;11.144;2022-10-16T02:42:39;15.80;99.90
45643;DHT22;31358;46.008;11.144;2022-10-16T02:45:07;15.80;99.90
45643;DHT22;31358;46.008;11.144;2022-10-16T02:47:33;15.80;99.90
45643;DHT22;31358;46.008;11.144;2022-10-16T02:49:59;15.80;99.90
45643;DHT22;31358;46.008;11.144;2022-10-16T02:52:25;15.80;99.90
45643;DHT22;31358;46.008;11.144;2022-10-16T02:54:50;15.80;99.90
45643;DHT22;31358;46.008;11.144;2022-10-16T02:57:17;15.80;99.90
45643;DHT22;31358;46.008;11.144;2022-10-16T02:59:43;15.80;99.90
45643;DHT22;31358;46.008;11.144;2022-10-16T03:02:09;15.60;99.90
45643;DHT22;31358;46.008;11.144;2022-10-16T03:04:35;15.40;99.90
45643;DHT22;31358;46.008;11.144;2022-10-16T03:07:00;15.30;99.90
45643;DHT22;31358;46.008;11.144;2022-10-16T03:09:26;15.10;99.90
45643;DHT22;31358;46.008;11.144;2022-10-16T03:11:52;15.20;99.90
45643;DHT22;31358;46.008;11.144;2022-10-16T03:14:17;15.10;99.90
45643;DHT22;31358;46.008;11.144;2022-10-16T03:16:43;15.10;99.90
45643;DHT22;31358;46.008;11.144;2022-10-16T03:19:09;15.00;99.90
45643;DHT22;31358;46.008;11.144;2022-10-16T03:21:34;15.00;99.90
45643;DHT22;31358;46.008;11.144;2022-10-16T03:24:00;15.00;99.90
45643;DHT22;31358;46.008;11.144;2022-10-16T03:26:25;15.10;99.90
45643;DHT22;31358;46.008;11.144;2022-10-16T03:28:51;15.00;99.90
45643;DHT22;31358;46.008;11.144;2022-10-16T03:31:17;15.00;99.90
45643;DHT22;31358;46.008;11.144;2022-10-16T03:33:42;14.90;99.90
45643;DHT22;31358;46.008;11.144;2022-10-16T03:36:08;15.00;99.90
45643;DHT22;31358;46.008;11.144;2022-10-16T03:38:34;15.00;99.90
45643;DHT22;31358;46.008;11.144;2022-10-16T03:40:59;15.00;99.90
45643;DHT22;31358;46.008;11.144;2022-10-16T03:43:25;15.00;99.90
45643;DHT22;31358;46.008;11.144;2022-10-16T03:45:51;15.00;99.90
45643;DHT22;31358;46.008;11.144;2022-10-16T03:48:17;15.00;99.90
45643;DHT22;31358;46.008;11.144;2022-10-16T03:50:43;15.00;99.90
45643;DHT22;31358;46.008;11.144;2022-10-16T03:53:09;15.00;99.90
45643;DHT22;31358;46.008;11.144;2022-10-16T03:55:35;15.00;99.90
45643;DHT22;31358;46.008;11.144;2022-10-16T03:58:01;15.00;99.90
45643;DHT22;31358;46.008;11.144;2022-10-16T04:00:27;15.00;99.90
45643;DHT22;31358;46.008;11.144;2022-10-16T04:02:52;15.00;99.90
45643;DHT22;31358;46.008;11.144;2022-10-16T04:05:18;15.00;99.90
45643;DHT22;31358;46.008;11.144;2022-10-16T04:07:44;14.90;99.90
45643;DHT22;31358;46.008;11.144;2022-10-16T04:10:09;14.90;99.90
45643;DHT22;31358;46.008;11.144;2022-10-16T04:12:35;15.00;99.90
45643;DHT22;31358;46.008;11.144;2022-10-16T04:15:01;14.90;99.90
45643;DHT22;31358;46.008;11.144;2022-10-16T04:17:27;14.80;99.90
45643;DHT22;31358;46.008;11.144;2022-10-16T04:19:52;14.90;99.90
45643;DHT22;31358;46.008;11.144;2022-10-16T04:22:18;14.90;99.90
45643;DHT22;31358;46.008;11.144;2022-10-16T04:24:44;14.90;99.90
45643;DHT22;31358;46.008;11.144;2022-10-16T04:27:09;14.80;99.90
45643;DHT22;31358;46.008;11.144;2022-10-16T04:29:35;14.90;99.90
45643;DHT22;31358;46.008;11.144;2022-10-16T04:32:01;14.90;99.90
45643;DHT22;31358;46.008;11.144;2022-10-16T04:34:26;14.80;99.90
45643;DHT22;31358;46.008;11.144;2022-10-16T04:36:52;14.70;99.90
45643;DHT22;31358;46.008;11.144;2022-10-16T04:39:17;14.60;99.90
45643;DHT22;31358;46.008;11.144;2022-10-16T04:41:43;14.70;99.90
45643;DHT22;31358;46.008;11.144;2022-10-16T04:44:09;14.70;99.90
45643;DHT22;31358;46.008;11.144;2022-10-16T04:46:35;14.70;99.90
45643;DHT22;31358;46.008;11.144;2022-10-16T04:49:00;14.80;99.90
45643;DHT22;31358;46.008;11.144;2022-10-16T04:51:26;14.70;99.90
45643;DHT22;31358;46.008;11.144;2022-10-16T04:53:53;14.70;99.90
45643;DHT22;31358;46.008;11.144;2022-10-16T04:56:19;14.70;99.90
45643;DHT22;31358;46.008;11.144;2022-10-16T04:58:46;14.70;99.90
45643;DHT22;31358;46.008;11.144;2022-10-16T05:01:12;14.90;99.90
45643;DHT22;31358;46.008;11.144;2022-10-16T05:03:37;15.00;99.90
45643;DHT22;31358;46.008;11.144;2022-10-16T05:06:05;14.90;99.90
45643;DHT22;31358;46.008;11.144;2022-10-16T05:08:31;14.90;99.90
45643;DHT22;31358;46.008;11.144;2022-10-16T05:10:56;15.00;99.90
45643;DHT22;31358;46.008;11.144;2022-10-16T05:13:22;15.20;99.90
45643;DHT22;31358;46.008;11.144;2022-10-16T05:15:49;15.20;99.90
45643;DHT22;31358;46.008;11.144;2022-10-16T05:18:15;15.10;99.90
45643;DHT22;31358;46.008;11.144;2022-10-16T05:20:41;15.00;99.90
45643;DHT22;31358;46.008;11.144;2022-10-16T05:23:07;15.00;99.90
45643;DHT22;31358;46.008;11.144;2022-10-16T05:25:36;15.10;99.90
45643;DHT22;31358;46.008;11.144;2022-10-16T05:28:01;15.20;99.90
45643;DHT22;31358;46.008;11.144;2022-10-16T05:30:27;15.30;99.90
45643;DHT22;31358;46.008;11.144;2022-10-16T05:32:53;15.30;99.90
45643;DHT22;31358;46.008;11.144;2022-10-16T05:35:19;15.30;99.90
45643;DHT22;31358;46.008;11.144;2022-10-16T05:37:46;15.30;99.90
45643;DHT22;31358;46.008;11.144;2022-10-16T05:40:12;15.30;99.90
45643;DHT22;31358;46.008;11.144;2022-10-16T05:42:38;15.30;99.90
45643;DHT22;31358;46.008;11.144;2022-10-16T05:45:06;15.30;99.90
45643;DHT22;31358;46.008;11.144;2022-10-16T05:47:32;15.30;99.90
45643;DHT22;31358;46.008;11.144;2022-10-16T05:49:57;15.30;99.90
45643;DHT22;31358;46.008;11.144;2022-10-16T05:52:23;15.30;99.90
45643;DHT22;31358;46.008;11.144;2022-10-16T05:54:48;15.30;99.90
45643;DHT22;31358;46.008;11.144;2022-10-16T05:57:15;15.30;99.90
45643;DHT22;31358;46.008;11.144;2022-10-16T05:59:40;15.20;99.90
45643;DHT22;31358;46.008;11.144;2022-10-16T06:02:11;15.10;99.90
45643;DHT22;31358;46.008;11.144;2022-10-16T06:04:37;15.10;99.90
45643;DHT22;31358;46.008;11.144;2022-10-16T06:07:03;15.20;99.90
45643;DHT22;31358;46.008;11.144;2022-10-16T06:09:28;15.20;99.90
45643;DHT22;31358;46.008;11.144;2022-10-16T06:11:54;15.20;99.90
45643;DHT22;31358;46.008;11.144;2022-10-16T06:14:20;15.20;99.90
45643;DHT22;31358;46.008;11.144;2022-10-16T06:16:45;15.20;99.90
45643;DHT22;31358;46.008;11.144;2022-10-16T06:19:11;15.20;99.90
45643;DHT22;31358;46.008;11.144;2022-10-16T06:21:37;15.10;99.90
45643;DHT22;31358;46.008;11.144;2022-10-16T06:24:02;15.10;99.90
45643;DHT22;31358;46.008;11.144;2022-10-16T06:26:29;15.10;99.90
45643;DHT22;31358;46.008;11.144;2022-10-16T06:28:57;15.10;99.90
45643;DHT22;31358;46.008;11.144;2022-10-16T06:31:23;15.10;99.90
45643;DHT22;31358;46.008;11.144;2022-10-16T06:33:53;15.10;99.90
45643;DHT22;31358;46.008;11.144;2022-10-16T06:36:19;15.10;99.90
45643;DHT22;31358;46.008;11.144;2022-10-16T06:38:45;15.20;99.90
45643;DHT22;31358;46.008;11.144;2022-10-16T06:41:14;15.30;99.90
45643;DHT22;31358;46.008;11.144;2022-10-16T06:43:40;15.40;99.90
45643;DHT22;31358;46.008;11.144;2022-10-16T06:46:07;15.40;99.90
45643;DHT22;31358;46.008;11.144;2022-10-16T06:48:33;15.40;99.90
45643;DHT22;31358;46.008;11.144;2022-10-16T06:53:34;15.50;99.90
45643;DHT22;31358;46.008;11.144;2022-10-16T06:56:14;15.50;99.90
45643;DHT22;31358;46.008;11.144;2022-10-16T06:58:41;15.60;99.90
45643;DHT22;31358;46.008;11.144;2022-10-16T07:01:07;15.70;99.90
45643;DHT22;31358;46.008;11.144;2022-10-16T07:03:36;15.70;99.90
45643;DHT22;31358;46.008;11.144;2022-10-16T07:06:03;15.80;99.90
45643;DHT22;31358;46.008;11.144;2022-10-16T07:08:37;15.80;99.90
45643;DHT22;31358;46.008;11.144;2022-10-16T07:11:05;15.90;99.90
45643;DHT22;31358;46.008;11.144;2022-10-16T07:13:35;15.90;99.90
45643;DHT22;31358;46.008;11.144;2022-10-16T07:16:09;15.90;99.90
45643;DHT22;31358;46.008;11.144;2022-10-16T07:18:35;15.90;99.90
45643;DHT22;31358;46.008;11.144;2022-10-16T07:21:10;16.00;99.90
45643;DHT22;31358;46.008;11.144;2022-10-16T07:23:37;16.10;99.90
45643;DHT22;31358;46.008;11.144;2022-10-16T07:26:04;16.20;99.90
45643;DHT22;31358;46.008;11.144;2022-10-16T07:28:30;16.30;99.90
45643;DHT22;31358;46.008;11.144;2022-10-16T07:31:04;16.40;99.90
45643;DHT22;31358;46.008;11.144;2022-10-16T07:33:30;16.40;99.90
45643;DHT22;31358;46.008;11.144;2022-10-16T07:35:56;16.30;99.90
45643;DHT22;31358;46.008;11.144;2022-10-16T07:38:22;16.30;99.90
45643;DHT22;31358;46.008;11.144;2022-10-16T07:40:55;16.30;99.90
45643;DHT22;31358;46.008;11.144;2022-10-16T07:43:20;16.30;99.90
45643;DHT22;31358;46.008;11.144;2022-10-16T07:45:50;16.30;99.90
45643;DHT22;31358;46.008;11.144;2022-10-16T07:48:16;16.40;99.90
45643;DHT22;31358;46.008;11.144;2022-10-16T07:50:43;16.40;99.90
45643;DHT22;31358;46.008;11.144;2022-10-16T07:53:09;16.40;99.90
45643;DHT22;31358;46.008;11.144;2022-10-16T07:55:35;16.50;99.90
45643;DHT22;31358;46.008;11.144;2022-10-16T07:58:01;16.60;99.90
45643;DHT22;31358;46.008;11.144;2022-10-16T08:00:26;16.70;99.90
45643;DHT22;31358;46.008;11.144;2022-10-16T08:02:52;16.70;99.90
45643;DHT22;31358;46.008;11.144;2022-10-16T08:05:18;16.80;99.90
45643;DHT22;31358;46.008;11.144;2022-10-16T08:07:48;16.80;99.90
45643;DHT22;31358;46.008;11.144;2022-10-16T08:10:19;17.00;99.90
45643;DHT22;31358;46.008;11.144;2022-10-16T08:12:45;17.00;99.90
45643;DHT22;31358;46.008;11.144;2022-10-16T08:15:11;17.00;99.90
45643;DHT22;31358;46.008;11.144;2022-10-16T08:17:37;17.00;99.90
45643;DHT22;31358;46.008;11.144;2022-10-16T08:20:03;16.90;99.90
45643;DHT22;31358;46.008;11.144;2022-10-16T08:22:28;16.90;99.90
45643;DHT22;31358;46.008;11.144;2022-10-16T08:24:54;16.90;99.90
45643;DHT22;31358;46.008;11.144;2022-10-16T08:27:20;16.90;99.90
45643;DHT22;31358;46.008;11.144;2022-10-16T08:29:45;16.90;99.90
45643;DHT22;31358;46.008;11.144;2022-10-16T08:32:11;17.00;99.90
45643;DHT22;31358;46.008;11.144;2022-10-16T08:34:36;17.00;99.90
45643;DHT22;31358;46.008;11.144;2022-10-16T08:37:02;17.20;99.90
45643;DHT22;31358;46.008;11.144;2022-10-16T08:39:28;17.20;99.90
45643;DHT22;31358;46.008;11.144;2022-10-16T08:44:53;17.20;99.90
45643;DHT22;31358;46.008;11.144;2022-10-16T08:47:43;17.30;99.90
45643;DHT22;31358;46.008;11.144;2022-10-16T08:50:27;17.40;99.90
45643;DHT22;31358;46.008;11.144;2022-10-16T08:52:54;17.30;99.90
45643;DHT22;31358;46.008;11.144;2022-10-16T08:55:42;17.40;99.90
45643;DHT22;31358;46.008;11.144;2022-10-16T09:00:47;17.50;99.90
45643;DHT22;31358;46.008;11.144;2022-10-16T09:17:37;17.90;99.90
45643;DHT22;31358;46.008;11.144;2022-10-16T09:25:28;17.90;99.90
45643;DHT22;31358;46.008;11.144;2022-10-16T09:27:54;17.90;99.90
45643;DHT22;31358;46.008;11.144;2022-10-16T09:30:21;17.90;99.90
45643;DHT22;31358;46.008;11.144;2022-10-16T09:32:50;17.80;99.90
45643;DHT22;31358;46.008;11.144;2022-10-16T09:35:21;17.90;99.90
45643;DHT22;31358;46.008;11.144;2022-10-16T09:37:50;17.80;99.90
45643;DHT22;31358;46.008;11.144;2022-10-16T09:40:31;17.90;99.90
45643;DHT22;31358;46.008;11.144;2022-10-16T09:43:14;17.90;99.90
45643;DHT22;31358;46.008;11.144;2022-10-16T09:45:43;17.90;99.90
45643;DHT22;31358;46.008;11.144;2022-10-16T09:48:19;17.90;99.90
45643;DHT22;31358;46.008;11.144;2022-10-16T09:50:59;18.10;99.90
45643;DHT22;31358;46.008;11.144;2022-10-16T09:53:39;18.30;99.90
45643;DHT22;31358;46.008;11.144;2022-10-16T09:56:05;18.30;99.90
45643;DHT22;31358;46.008;11.144;2022-10-16T09:58:32;18.30;99.90
45643;DHT22;31358;46.008;11.144;2022-10-16T10:00:59;18.40;99.90
45643;DHT22;31358;46.008;11.144;2022-10-16T10:06:29;18.50;99.90
45643;DHT22;31358;46.008;11.144;2022-10-16T10:09:16;18.50;99.90
45643;DHT22;31358;46.008;11.144;2022-10-16T10:11:59;18.70;99.90
45643;DHT22;31358;46.008;11.144;2022-10-16T10:14:44;18.60;99.90
45643;DHT22;31358;46.008;11.144;2022-10-16T10:19:49;18.70;99.90
45643;DHT22;31358;46.008;11.144;2022-10-16T10:33:14;19.00;99.90
45643;DHT22;31358;46.008;11.144;2022-10-16T10:38:41;19.00;99.90
45643;DHT22;31358;46.008;11.144;2022-10-16T10:44:01;19.10;99.90
45643;DHT22;31358;46.008;11.144;2022-10-16T10:46:35;19.10;99.90
45643;DHT22;31358;46.008;11.144;2022-10-16T10:57:36;19.10;99.90
45643;DHT22;31358;46.008;11.144;2022-10-16T11:00:53;19.30;99.90
45643;DHT22;31358;46.008;11.144;2022-10-16T11:09:07;19.60;99.90
45643;DHT22;31358;46.008;11.144;2022-10-16T11:11:43;19.90;99.90
45643;DHT22;31358;46.008;11.144;2022-10-16T11:22:17;20.30;99.90
45643;DHT22;31358;46.008;11.144;2022-10-16T11:27:34;20.40;99.90
45643;DHT22;31358;46.008;11.144;2022-10-16T11:30:04;20.60;99.90
45643;DHT22;31358;46.008;11.144;2022-10-16T11:32:38;20.50;99.90
45643;DHT22;31358;46.008;11.144;2022-10-16T11:35:27;20.60;99.90
45643;DHT22;31358;46.008;11.144;2022-10-16T11:37:57;20.70;99.90
45643;DHT22;31358;46.008;11.144;2022-10-16T11:40:28;20.90;99.90
45643;DHT22;31358;46.008;11.144;2022-10-16T11:43:03;21.00;99.90
45643;DHT22;31358;46.008;11.144;2022-10-16T11:45:34;21.00;99.30
45643;DHT22;31358;46.008;11.144;2022-10-16T11:48:33;21.10;99.70
45643;DHT22;31358;46.008;11.144;2022-10-16T11:56:18;21.10;98.00
45643;DHT22;31358;46.008;11.144;2022-10-16T11:58:58;21.10;97.80
45643;DHT22;31358;46.008;11.144;2022-10-16T12:06:37;21.40;98.20
45643;DHT22;31358;46.008;11.144;2022-10-16T12:09:29;21.50;98.50
45643;DHT22;31358;46.008;11.144;2022-10-16T12:11:56;21.60;98.40
45643;DHT22;31358;46.008;11.144;2022-10-16T12:14:35;21.70;97.50
45643;DHT22;31358;46.008;11.144;2022-10-16T12:17:04;21.50;97.90
45643;DHT22;31358;46.008;11.144;2022-10-16T12:20:12;21.50;98.00
45643;DHT22;31358;46.008;11.144;2022-10-16T12:23:00;21.70;97.90
45643;DHT22;31358;46.008;11.144;2022-10-16T12:30:25;21.90;97.10
45643;DHT22;31358;46.008;11.144;2022-10-16T12:32:56;21.90;97.80
45643;DHT22;31358;46.008;11.144;2022-10-16T12:35:29;21.80;97.70
45643;DHT22;31358;46.008;11.144;2022-10-16T12:38:06;21.70;96.50
45643;DHT22;31358;46.008;11.144;2022-10-16T12:40:34;21.70;96.20
45643;DHT22;31358;46.008;11.144;2022-10-16T12:45:45;21.80;95.80
45643;DHT22;31358;46.008;11.144;2022-10-16T12:48:21;21.80;95.80
45643;DHT22;31358;46.008;11.144;2022-10-16T12:50:47;21.60;96.20
45643;DHT22;31358;46.008;11.144;2022-10-16T12:53:22;21.80;96.70
45643;DHT22;31358;46.008;11.144;2022-10-16T12:56:12;21.90;97.20
45643;DHT22;31358;46.008;11.144;2022-10-16T12:59:01;22.10;96.90
45643;DHT22;31358;46.008;11.144;2022-10-16T13:09:36;21.70;96.00
45643;DHT22;31358;46.008;11.144;2022-10-16T13:12:30;21.80;96.60
45643;DHT22;31358;46.008;11.144;2022-10-16T13:15:46;22.00;95.80
45643;DHT22;31358;46.008;11.144;2022-10-16T13:23:16;21.70;95.60
45643;DHT22;31358;46.008;11.144;2022-10-16T13:25:53;21.90;96.40
45643;DHT22;31358;46.008;11.144;2022-10-16T13:28:30;22.30;96.10
45643;DHT22;31358;46.008;11.144;2022-10-16T13:30:58;22.50;95.30
45643;DHT22;31358;46.008;11.144;2022-10-16T13:33:37;22.50;95.30
45643;DHT22;31358;46.008;11.144;2022-10-16T13:36:05;22.50;95.20
45643;DHT22;31358;46.008;11.144;2022-10-16T13:38:33;22.50;95.20
45643;DHT22;31358;46.008;11.144;2022-10-16T13:41:01;22.50;94.70
45643;DHT22;31358;46.008;11.144;2022-10-16T13:43:42;22.60;95.20
45643;DHT22;31358;46.008;11.144;2022-10-16T13:46:20;22.50;95.10
45643;DHT22;31358;46.008;11.144;2022-10-16T13:49:00;22.50;95.20
45643;DHT22;31358;46.008;11.144;2022-10-16T13:51:26;22.40;95.20
45643;DHT22;31358;46.008;11.144;2022-10-16T13:53:52;22.50;95.50
45643;DHT22;31358;46.008;11.144;2022-10-16T13:56:22;22.40;95.30
45643;DHT22;31358;46.008;11.144;2022-10-16T13:59:20;22.30;95.50
45643;DHT22;31358;46.008;11.144;2022-10-16T14:01:48;22.20;95.80
45643;DHT22;31358;46.008;11.144;2022-10-16T14:04:15;22.20;95.80
45643;DHT22;31358;46.008;11.144;2022-10-16T14:06:43;22.20;96.00
45643;DHT22;31358;46.008;11.144;2022-10-16T14:09:29;22.20;95.80
45643;DHT22;31358;46.008;11.144;2022-10-16T14:12:08;22.20;96.00
45643;DHT22;31358;46.008;11.144;2022-10-16T14:14:55;22.20;95.90
45643;DHT22;31358;46.008;11.144;2022-10-16T14:17:34;22.10;96.40
45643;DHT22;31358;46.008;11.144;2022-10-16T14:20:03;22.10;96.30
45643;DHT22;31358;46.008;11.144;2022-10-16T14:24:59;22.10;96.60
45643;DHT22;31358;46.008;11.144;2022-10-16T14:27:31;22.10;96.70
45643;DHT22;31358;46.008;11.144;2022-10-16T14:30:20;22.10;96.80
45643;DHT22;31358;46.008;11.144;2022-10-16T14:37:56;22.10;96.90
45643;DHT22;31358;46.008;11.144;2022-10-16T14:40:31;21.90;96.90
45643;DHT22;31358;46.008;11.144;2022-10-16T14:42:58;21.80;96.70
45643;DHT22;31358;46.008;11.144;2022-10-16T14:45:27;21.80;96.90
45643;DHT22;31358;46.008;11.144;2022-10-16T14:48:15;21.80;97.10
45643;DHT22;31358;46.008;11.144;2022-10-16T14:50:42;21.70;97.10
45643;DHT22;31358;46.008;11.144;2022-10-16T14:53:14;21.60;97.20
45643;DHT22;31358;46.008;11.144;2022-10-16T14:55:41;21.50;97.40
45643;DHT22;31358;46.008;11.144;2022-10-16T14:58:19;21.40;97.60
45643;DHT22;31358;46.008;11.144;2022-10-16T15:00:46;21.40;97.80
45643;DHT22;31358;46.008;11.144;2022-10-16T15:03:12;21.30;97.70
45643;DHT22;31358;46.008;11.144;2022-10-16T15:05:38;21.20;97.80
45643;DHT22;31358;46.008;11.144;2022-10-16T15:08:03;21.20;98.00
45643;DHT22;31358;46.008;11.144;2022-10-16T15:10:35;21.10;98.20
45643;DHT22;31358;46.008;11.144;2022-10-16T15:13:03;21.10;98.40
45643;DHT22;31358;46.008;11.144;2022-10-16T15:18:07;20.90;98.20
45643;DHT22;31358;46.008;11.144;2022-10-16T15:20:35;20.80;98.80
45643;DHT22;31358;46.008;11.144;2022-10-16T15:23:03;20.70;98.80
45643;DHT22;31358;46.008;11.144;2022-10-16T15:25:42;20.60;99.00
45643;DHT22;31358;46.008;11.144;2022-10-16T15:28:09;20.50;99.30
45643;DHT22;31358;46.008;11.144;2022-10-16T15:30:35;20.50;99.10
45643;DHT22;31358;46.008;11.144;2022-10-16T15:33:02;20.50;99.30
45643;DHT22;31358;46.008;11.144;2022-10-16T15:35:28;20.50;99.30
45643;DHT22;31358;46.008;11.144;2022-10-16T15:37:54;20.30;99.40
45643;DHT22;31358;46.008;11.144;2022-10-16T15:40:21;20.20;99.40
45643;DHT22;31358;46.008;11.144;2022-10-16T15:42:47;20.00;99.60
45643;DHT22;31358;46.008;11.144;2022-10-16T15:45:13;20.00;99.10
45643;DHT22;31358;46.008;11.144;2022-10-16T15:47:40;20.00;99.50
45643;DHT22;31358;46.008;11.144;2022-10-16T15:50:08;20.00;99.30
45643;DHT22;31358;46.008;11.144;2022-10-16T15:52:34;19.90;99.50
45643;DHT22;31358;46.008;11.144;2022-10-16T15:55:00;19.80;99.50
45643;DHT22;31358;46.008;11.144;2022-10-16T15:57:28;19.50;99.90
45643;DHT22;31358;46.008;11.144;2022-10-16T15:59:54;19.40;99.90
45643;DHT22;31358;46.008;11.144;2022-10-16T16:02:20;19.30;99.90
45643;DHT22;31358;46.008;11.144;2022-10-16T16:04:46;19.20;99.90
45643;DHT22;31358;46.008;11.144;2022-10-16T16:07:11;19.10;99.90
45643;DHT22;31358;46.008;11.144;2022-10-16T16:09:37;19.00;99.90
45643;DHT22;31358;46.008;11.144;2022-10-16T16:12:03;18.90;99.90
45643;DHT22;31358;46.008;11.144;2022-10-16T16:14:29;18.80;99.90
45643;DHT22;31358;46.008;11.144;2022-10-16T16:16:55;18.70;99.90
45643;DHT22;31358;46.008;11.144;2022-10-16T16:19:21;18.70;99.90
45643;DHT22;31358;46.008;11.144;2022-10-16T16:21:47;18.60;99.90
45643;DHT22;31358;46.008;11.144;2022-10-16T16:24:13;18.50;99.90
45643;DHT22;31358;46.008;11.144;2022-10-16T16:26:39;18.50;99.90
45643;DHT22;31358;46.008;11.144;2022-10-16T16:29:12;18.50;99.90
45643;DHT22;31358;46.008;11.144;2022-10-16T16:31:39;18.40;99.90
45643;DHT22;31358;46.008;11.144;2022-10-16T16:34:05;18.40;99.90
45643;DHT22;31358;46.008;11.144;2022-10-16T16:36:31;18.30;99.90
45643;DHT22;31358;46.008;11.144;2022-10-16T16:38:57;18.30;99.90
45643;DHT22;31358;46.008;11.144;2022-10-16T16:41:25;18.20;99.90
45643;DHT22;31358;46.008;11.144;2022-10-16T16:43:52;18.20;99.90
45643;DHT22;31358;46.008;11.144;2022-10-16T16:46:18;18.10;99.90
45643;DHT22;31358;46.008;11.144;2022-10-16T16:48:44;18.10;99.90
45643;DHT22;31358;46.008;11.144;2022-10-16T16:51:15;18.30;99.90
45643;DHT22;31358;46.008;11.144;2022-10-16T16:53:42;18.30;99.90
45643;DHT22;31358;46.008;11.144;2022-10-16T16:56:08;18.40;99.90
45643;DHT22;31358;46.008;11.144;2022-10-16T16:58:34;18.50;99.90
45643;DHT22;31358;46.008;11.144;2022-10-16T17:01:00;18.40;99.90
45643;DHT22;31358;46.008;11.144;2022-10-16T17:03:32;18.40;99.90
45643;DHT22;31358;46.008;11.144;2022-10-16T17:06:00;18.20;99.90
45643;DHT22;31358;46.008;11.144;2022-10-16T17:08:27;18.10;99.90
45643;DHT22;31358;46.008;11.144;2022-10-16T17:10:53;18.00;99.90
45643;DHT22;31358;46.008;11.144;2022-10-16T17:13:24;18.00;99.90
45643;DHT22;31358;46.008;11.144;2022-10-16T17:15:51;17.80;99.90
45643;DHT22;31358;46.008;11.144;2022-10-16T17:18:19;17.80;99.90
45643;DHT22;31358;46.008;11.144;2022-10-16T17:20:45;17.70;99.90
45643;DHT22;31358;46.008;11.144;2022-10-16T17:23:12;17.60;99.90
45643;DHT22;31358;46.008;11.144;2022-10-16T17:25:38;17.50;99.90
45643;DHT22;31358;46.008;11.144;2022-10-16T17:28:05;17.50;99.90
45643;DHT22;31358;46.008;11.144;2022-10-16T17:30:31;17.40;99.90
45643;DHT22;31358;46.008;11.144;2022-10-16T17:33:00;17.20;99.90
45643;DHT22;31358;46.008;11.144;2022-10-16T17:35:26;17.20;99.90
45643;DHT22;31358;46.008;11.144;2022-10-16T17:37:52;17.20;99.90
45643;DHT22;31358;46.008;11.144;2022-10-16T17:40:18;17.10;99.90
45643;DHT22;31358;46.008;11.144;2022-10-16T17:42:43;17.20;99.90
45643;DHT22;31358;46.008;11.144;2022-10-16T17:45:09;17.10;99.90
45643;DHT22;31358;46.008;11.144;2022-10-16T17:47:35;17.10;99.90
45643;DHT22;31358;46.008;11.144;2022-10-16T17:50:02;17.30;99.90